Time;durP1;ratioP1;P1;durP2;ratioP2;P2;SDS_P1;SDS_P2;PMS_P1;PMS_P2;Temp;Humidity;BMP_temperature;BMP_pressure;BME280_temperature;BME280_humidity;BME280_pressure;Samples;Min_cycle;Max_cycle;Signal;HPM_P1;HPM_P2
2022/10/09 00:01:30;;;;;;;0.88;0.63;;;;;;;20.17;35.33;99553.28;4975751;28;20088;-96
2022/10/09 00:03:56;;;;;;;3.70;0.90;;;;;;;19.87;35.01;99510.69;4947079;28;20074;-96
2022/10/09 00:06:27;;;;;;;0.93;0.63;;;;;;;19.93;35.25;99535.91;4979937;28;20027;-96
2022/10/09 00:08:52;;;;;;;1.52;0.82;;;;;;;20.11;35.12;99564.38;4963278;28;20030;-96
2022/10/09 00:11:21;;;;;;;1.40;0.70;;;;;;;20.04;35.18;99554.63;4963469;28;20109;-96
2022/10/09 00:13:52;;;;;;;1.25;0.70;;;;;;;19.85;35.30;99539.97;4979637;28;20364;-96
2022/10/09 00:16:18;;;;;;;1.33;0.70;;;;;;;19.76;35.35;99531.53;4979978;28;20034;-96
2022/10/09 00:18:44;;;;;;;1.45;0.77;;;;;;;19.99;35.30;99567.34;4959459;28;20448;-96
2022/10/09 00:21:27;;;;;;;1.05;0.60;;;;;;;19.79;35.26;99552.69;4963510;28;20018;-96
2022/10/09 00:23:54;;;;;;;4.32;0.75;;;;;;;19.82;35.44;99557.59;4980055;28;20030;-96
2022/10/09 00:26:19;;;;;;;1.23;0.80;;;;;;;19.75;35.50;99556.22;4982006;28;20379;-96
2022/10/09 00:28:45;;;;;;;1.70;0.65;;;;;;;19.77;35.49;99560.28;4963685;28;20027;-96
2022/10/09 00:31:14;;;;;;;2.67;0.93;;;;;;;19.85;35.42;99577.91;4977220;28;20034;-96
2022/10/09 00:33:40;;;;;;;2.45;0.68;;;;;;;19.79;35.39;99577.09;4962562;28;20042;-96
2022/10/09 00:36:08;;;;;;;1.13;0.77;;;;;;;19.51;35.55;99535.81;4961472;28;20031;-96
2022/10/09 00:38:34;;;;;;;1.25;0.70;;;;;;;19.55;35.54;99535.28;4962652;28;20027;-96
2022/10/09 00:40:59;;;;;;;2.10;0.80;;;;;;;19.65;35.62;99568.66;4946269;28;20027;-96
2022/10/09 00:43:53;;;;;;;2.83;0.90;;;;;;;19.82;35.60;99592.03;4977229;28;20396;-96
2022/10/09 00:46:38;;;;;;;2.25;0.88;;;;;;;19.80;35.76;99589.59;4962130;28;20055;-96
2022/10/09 00:49:29;;;;;;;1.70;0.77;;;;;;;19.78;35.75;99591.75;4978098;28;20027;-96
2022/10/09 00:51:57;;;;;;;1.58;0.60;;;;;;;19.47;35.62;99550.16;4978751;28;20137;-96
2022/10/09 00:54:24;;;;;;;0.88;0.70;;;;;;;19.47;35.93;99567.25;4962951;28;20027;-96
2022/10/09 00:56:50;;;;;;;2.40;0.80;;;;;;;19.63;35.78;99597.91;4945150;28;20055;-96
2022/10/09 00:59:16;;;;;;;1.27;0.63;;;;;;;19.63;35.89;99600.63;4962305;28;20042;-96
2022/10/09 01:01:44;;;;;;;1.40;0.75;;;;;;;19.55;35.76;99562.38;4962792;28;20562;-96
2022/10/09 01:04:10;;;;;;;1.13;0.70;;;;;;;19.84;35.23;99581.72;4962247;28;20106;-96
2022/10/09 01:06:42;;;;;;;4.32;0.88;;;;;;;20.30;35.08;99616.22;4962245;28;20030;-96
2022/10/09 01:09:37;;;;;;;1.65;0.75;;;;;;;20.56;34.55;99614.31;4979538;28;20053;-96
2022/10/09 01:12:38;;;;;;;3.70;0.80;;;;;;;20.76;34.21;99622.44;4980432;28;20170;-96
2022/10/09 01:15:22;;;;;;;2.10;0.70;;;;;;;20.61;34.19;99596.13;4949492;28;20053;-96
2022/10/09 01:18:20;;;;;;;2.83;0.70;;;;;;;20.65;34.29;99607.28;4975659;28;20038;-96
2022/10/09 01:20:56;;;;;;;1.10;0.68;;;;;;;20.61;34.43;99622.44;4977874;28;20555;-96
2022/10/09 01:24:01;;;;;;;1.52;0.63;;;;;;;20.58;34.43;99631.16;4943664;28;20435;-96
2022/10/09 01:27:00;;;;;;;2.72;1.13;;;;;;;20.48;34.59;99634.66;4918802;29;20042;-96
2022/10/09 01:29:46;;;;;;;1.10;0.77;;;;;;;20.38;34.85;99640.91;4917920;29;20543;-96
2022/10/09 01:32:14;;;;;;;1.63;0.70;;;;;;;20.25;34.74;99627.88;4933412;28;20039;-96
2022/10/09 01:34:39;;;;;;;1.45;0.60;;;;;;;20.19;34.89;99642.53;4960162;28;20027;-96
2022/10/09 01:37:05;;;;;;;1.10;0.75;;;;;;;20.06;34.97;99628.41;4960244;28;20038;-96
2022/10/09 01:39:30;;;;;;;2.15;0.80;;;;;;;20.16;35.10;99643.06;4958706;28;20027;-96
2022/10/09 01:41:56;;;;;;;1.25;0.70;;;;;;;20.03;35.13;99631.66;4959570;28;20023;-96
2022/10/09 01:44:29;;;;;;;1.60;0.70;;;;;;;20.07;35.17;99640.91;4961249;28;20034;-96
2022/10/09 01:46:55;;;;;;;0.95;0.50;;;;;;;19.95;35.22;99637.59;4958654;28;20062;-96
2022/10/09 01:49:33;;;;;;;2.70;0.68;;;;;;;19.93;35.21;99639.75;4976606;28;20054;-96
2022/10/09 01:52:13;;;;;;;1.02;0.73;;;;;;;19.80;35.13;99630.25;4976506;28;20030;-96
2022/10/09 01:54:47;;;;;;;1.67;0.80;;;;;;;19.63;35.02;99624.22;4961248;28;20110;-96
2022/10/09 01:57:13;;;;;;;0.57;0.40;;;;;;;19.65;35.14;99628.28;4977660;28;20033;-96
2022/10/09 01:59:39;;;;;;;1.25;0.50;;;;;;;19.57;35.23;99628.78;4944681;28;20403;-96
2022/10/09 02:02:05;;;;;;;2.55;0.63;;;;;;;19.60;35.33;99625.53;4960863;28;20057;-96
2022/10/09 02:04:31;;;;;;;1.48;0.60;;;;;;;19.62;35.38;99650.47;4961193;28;20057;-96
2022/10/09 02:06:57;;;;;;;0.55;0.52;;;;;;;19.47;35.27;99621.44;4976706;28;20113;-96
2022/10/09 02:09:23;;;;;;;1.48;0.60;;;;;;;19.60;35.37;99636.38;4960644;28;20458;-96
2022/10/09 02:11:52;;;;;;;0.75;0.57;;;;;;;19.45;35.27;99622.78;4960405;28;20035;-96
2022/10/09 02:14:17;;;;;;;2.08;0.50;;;;;;;19.43;35.56;99633.06;4944197;28;20031;-96
2022/10/09 02:16:45;;;;;;;1.08;0.60;;;;;;;19.41;35.42;99629.81;4976462;28;20362;-96
2022/10/09 02:19:34;;;;;;;1.30;0.70;;;;;;;19.70;35.51;99681.69;4976668;28;20402;-96
2022/10/09 02:22:21;;;;;;;2.38;0.60;;;;;;;19.60;35.37;99670.81;4959482;28;20126;-96
2022/10/09 02:24:46;;;;;;;1.33;0.68;;;;;;;19.68;35.39;99687.38;4962709;28;20035;-96
2022/10/09 02:27:12;;;;;;;1.20;0.47;;;;;;;19.66;35.41;99697.69;4961544;28;20033;-96
2022/10/09 02:29:39;;;;;;;1.08;0.55;;;;;;;19.64;35.64;99707.94;4961444;28;20507;-96
2022/10/09 02:32:05;;;;;;;1.00;0.60;;;;;;;19.50;35.60;99679.72;4961259;28;20383;-96
2022/10/09 02:34:30;;;;;;;2.38;0.65;;;;;;;19.78;35.19;99702.06;4944174;28;20038;-96
2022/10/09 02:36:56;;;;;;;1.45;0.52;;;;;;;19.95;35.01;99702.69;4957144;28;20491;-96
2022/10/09 02:39:22;;;;;;;0.70;0.60;;;;;;;20.11;34.65;99698.13;4976261;28;20034;-96
2022/10/09 02:41:48;;;;;;;1.70;0.80;;;;;;;20.28;34.15;99678.88;4975264;28;20026;-96
2022/10/09 02:44:13;;;;;;;0.73;0.50;;;;;;;20.68;33.87;99730.78;4975495;28;20117;-96
2022/10/09 02:46:39;;;;;;;1.20;0.40;;;;;;;20.51;33.78;99687.63;4959575;28;20078;-96
2022/10/09 02:49:05;;;;;;;1.33;0.88;;;;;;;20.55;33.69;99694.13;4943740;28;20122;-96
2022/10/09 02:51:31;;;;;;;0.85;0.50;;;;;;;20.45;33.93;99706.59;4976916;28;20452;-96
2022/10/09 02:53:58;;;;;;;0.82;0.65;;;;;;;20.32;33.97;99701.69;4963166;28;20122;-96
2022/10/09 02:56:24;;;;;;;1.77;0.88;;;;;;;20.22;34.16;99704.38;4963493;28;20022;-96
2022/10/09 02:58:50;;;;;;;0.98;0.60;;;;;;;20.47;34.19;99751.66;4979423;28;20511;-96
2022/10/09 03:01:15;;;;;;;0.88;0.65;;;;;;;20.32;34.28;99728.03;4962926;28;20050;-96
2022/10/09 03:03:41;;;;;;;0.93;0.68;;;;;;;20.31;34.38;99759.75;4946691;28;20475;-96
2022/10/09 03:06:09;;;;;;;2.47;0.50;;;;;;;20.03;34.26;99723.88;4963644;28;20035;-96
2022/10/09 03:08:35;;;;;;;0.70;0.52;;;;;;;19.86;34.51;99707.00;4962377;28;20059;-96
2022/10/09 03:11:01;;;;;;;1.65;0.52;;;;;;;20.05;34.39;99735.25;4962379;28;20023;-96
2022/10/09 03:13:26;;;;;;;1.55;0.63;;;;;;;20.09;34.60;99768.09;4961580;28;20023;-96
2022/10/09 03:15:52;;;;;;;0.60;0.60;;;;;;;19.82;34.73;99724.88;4978506;28;20035;-96
2022/10/09 03:18:18;;;;;;;1.50;0.60;;;;;;;20.00;34.71;99770.50;4962487;28;20113;-96
2022/10/09 03:20:44;;;;;;;2.10;0.60;;;;;;;19.59;34.89;99718.78;4977930;28;20027;-96
2022/10/09 03:23:10;;;;;;;0.73;0.50;;;;;;;19.69;34.72;99735.06;4946606;28;20109;-96
2022/10/09 03:25:36;;;;;;;1.38;0.57;;;;;;;19.70;34.57;99739.44;4978662;28;20405;-96
2022/10/09 03:28:01;;;;;;;1.45;0.55;;;;;;;19.51;34.84;99719.28;4962628;28;20118;-96
2022/10/09 03:30:27;;;;;;;0.95;0.52;;;;;;;19.54;34.70;99740.44;4963651;28;20483;-96
2022/10/09 03:35:23;;;;;;;1.00;0.50;;;;;;;19.53;34.87;99744.22;4933023;29;20051;-97
2022/10/09 03:37:49;;;;;;;0.65;0.50;;;;;;;19.50;34.67;99740.13;4907016;29;20520;-96
2022/10/09 03:40:17;;;;;;;0.80;0.57;;;;;;;19.73;34.44;99738.09;4936701;29;20035;-96
2022/10/09 03:45:15;;;;;;;0.68;0.50;;;;;;;20.43;33.86;99782.03;4974013;28;20318;-96
2022/10/09 03:47:44;;;;;;;1.35;0.60;;;;;;;20.59;33.54;99776.63;4975530;28;20035;-96
2022/10/09 03:50:10;;;;;;;1.02;0.60;;;;;;;20.72;33.39;99788.91;4976090;28;20450;-96
2022/10/09 03:52:36;;;;;;;0.52;0.50;;;;;;;20.74;33.35;99773.97;4975910;28;20026;-96
2022/10/09 03:55:02;;;;;;;1.30;0.55;;;;;;;20.78;33.36;99795.97;4940569;28;20062;-97
2022/10/09 03:57:27;;;;;;;1.98;0.90;;;;;;;20.59;33.49;99782.06;4975906;28;20023;-96
2022/10/09 03:59:53;;;;;;;1.00;0.57;;;;;;;20.61;33.76;99807.03;4958871;28;20026;-96
2022/10/09 04:02:19;;;;;;;1.15;0.60;;;;;;;20.54;33.67;99809.19;4975574;28;20121;-96
2022/10/09 04:04:44;;;;;;;2.38;0.80;;;;;;;20.42;33.86;99807.56;4975098;28;20039;-96
2022/10/09 04:07:10;;;;;;;0.63;0.47;;;;;;;20.37;33.87;99815.69;4959579;28;20113;-96
2022/10/09 04:09:35;;;;;;;0.90;0.40;;;;;;;20.30;34.06;99823.25;4975345;28;20066;-96
2022/10/09 04:12:01;;;;;;;1.00;0.55;;;;;;;20.24;33.80;99824.31;4975187;28;20070;-96
2022/10/09 04:14:29;;;;;;;1.40;0.60;;;;;;;20.18;34.03;99817.22;4975117;28;20500;-96
2022/10/09 04:16:54;;;;;;;0.55;0.45;;;;;;;20.13;34.04;99823.47;4975403;28;20026;-96
2022/10/09 04:19:20;;;;;;;1.30;0.50;;;;;;;20.09;34.06;99827.75;4975220;28;20027;-96
2022/10/09 04:21:46;;;;;;;2.42;0.45;;;;;;;20.03;34.48;99837.78;4974828;28;20118;-96
2022/10/09 04:24:11;;;;;;;1.45;0.40;;;;;;;20.00;34.29;99835.59;4961147;28;20169;-96
2022/10/09 04:26:40;;;;;;;2.03;0.55;;;;;;;19.97;34.26;99844.28;4974719;28;20069;-96
2022/10/09 04:29:05;;;;;;;0.88;0.38;;;;;;;19.92;34.45;99841.53;4956862;28;20026;-96
2022/10/09 04:31:31;;;;;;;0.80;0.45;;;;;;;19.91;34.40;99844.50;4930227;28;20039;-96
2022/10/09 04:33:57;;;;;;;0.50;0.40;;;;;;;19.89;34.49;99839.34;4976401;28;20214;-96
2022/10/09 04:36:22;;;;;;;2.60;0.55;;;;;;;19.86;34.45;99848.00;4979254;28;20557;-96
2022/10/09 04:38:48;;;;;;;1.02;0.57;;;;;;;19.82;34.50;99849.59;4958626;28;20035;-96
2022/10/09 04:41:13;;;;;;;1.45;0.60;;;;;;;19.75;34.50;99851.72;4981464;28;20563;-96
2022/10/09 04:43:39;;;;;;;1.23;0.60;;;;;;;19.83;34.60;99851.22;4975533;28;20138;-96
2022/10/09 04:46:06;;;;;;;1.45;0.50;;;;;;;19.99;34.31;99855.66;4974034;28;20039;-96
2022/10/09 04:48:39;;;;;;;1.00;0.45;;;;;;;20.22;33.80;99865.25;4984152;28;20034;-96
2022/10/09 04:51:05;;;;;;;1.52;0.50;;;;;;;20.39;33.43;99848.78;4982141;28;20070;-96
2022/10/09 04:53:32;;;;;;;0.80;0.50;;;;;;;20.67;33.12;99871.16;4960259;28;20109;-96
2022/10/09 04:56:00;;;;;;;0.90;0.50;;;;;;;20.82;32.91;99873.91;4976313;28;20022;-96
2022/10/09 04:58:26;;;;;;;1.15;0.38;;;;;;;20.92;32.80;99877.72;4975334;28;20431;-96
2022/10/09 05:00:54;;;;;;;0.45;0.40;;;;;;;20.89;32.89;99879.09;4984830;28;20042;-96
2022/10/09 05:03:19;;;;;;;1.15;0.52;;;;;;;20.80;32.98;99881.53;4997191;28;20030;-96
2022/10/09 05:05:45;;;;;;;0.45;0.40;;;;;;;20.71;33.02;99888.53;4974330;28;20115;-83
2022/10/09 05:08:11;;;;;;;0.50;0.40;;;;;;;20.62;33.27;99892.88;4953686;28;20027;-83
2022/10/09 05:10:36;;;;;;;0.50;0.40;;;;;;;20.55;33.44;99895.00;4971158;28;20121;-83
2022/10/09 05:13:02;;;;;;;0.57;0.47;;;;;;;20.48;33.33;99894.41;4971362;28;20097;-83
2022/10/09 05:15:28;;;;;;;0.85;0.50;;;;;;;20.40;33.33;99902.00;4970711;28;20035;-83
2022/10/09 05:17:53;;;;;;;1.02;0.50;;;;;;;20.32;33.39;99902.50;4971596;28;20027;-83
2022/10/09 05:20:19;;;;;;;0.52;0.38;;;;;;;20.27;33.26;99905.19;4971212;28;20479;-83
2022/10/09 05:22:45;;;;;;;1.48;0.50;;;;;;;20.20;33.84;99910.03;4967707;28;20515;-83
2022/10/09 05:25:11;;;;;;;0.90;0.55;;;;;;;20.16;33.78;99914.34;4953645;28;20395;-83
2022/10/09 05:27:39;;;;;;;0.82;0.50;;;;;;;20.09;33.86;99922.69;4967548;28;20058;-83
2022/10/09 05:30:08;;;;;;;0.55;0.43;;;;;;;20.04;33.93;99923.50;4954191;28;20027;-83
2022/10/09 05:32:34;;;;;;;0.47;0.47;;;;;;;20.03;34.03;99932.72;4970109;28;20555;-83
2022/10/09 05:34:59;;;;;;;0.60;0.50;;;;;;;19.99;34.02;99928.06;4971001;28;20030;-83
2022/10/09 05:37:25;;;;;;;0.65;0.57;;;;;;;19.96;34.05;99932.13;4969515;28;20061;-83
2022/10/09 05:39:50;;;;;;;0.82;0.40;;;;;;;19.92;33.84;99933.75;4970535;28;20383;-83
2022/10/09 05:42:16;;;;;;;0.45;0.40;;;;;;;19.91;34.12;99950.25;4970846;28;20094;-83
2022/10/09 05:44:42;;;;;;;0.88;0.43;;;;;;;19.85;34.16;99941.25;4969872;28;20392;-83
2022/10/09 05:47:07;;;;;;;0.90;0.52;;;;;;;19.89;34.17;99947.81;4953437;28;20125;-83
2022/10/09 05:49:33;;;;;;;0.82;0.43;;;;;;;20.10;33.84;99947.94;4970438;28;20026;-83
2022/10/09 05:51:58;;;;;;;0.70;0.50;;;;;;;20.36;33.45;99946.19;4968829;28;20172;-83
2022/10/09 05:54:24;;;;;;;0.40;0.40;;;;;;;20.52;33.13;99933.50;4970499;28;20029;-83
2022/10/09 05:56:50;;;;;;;0.60;0.50;;;;;;;20.85;32.69;99950.50;4970092;28;20095;-83
2022/10/09 05:59:18;;;;;;;0.85;0.40;;;;;;;20.97;32.58;99960.06;4970538;28;20029;-83
2022/10/09 06:01:49;;;;;;;0.60;0.30;;;;;;;20.99;32.55;99963.31;4953992;28;20031;-83
2022/10/09 06:04:16;;;;;;;0.60;0.40;;;;;;;20.97;32.46;99961.94;4970459;28;20030;-83
2022/10/09 06:06:42;;;;;;;1.65;0.52;;;;;;;20.84;32.60;99963.28;4951632;28;20111;-82
2022/10/09 06:09:08;;;;;;;0.73;0.43;;;;;;;20.74;32.91;99969.47;4954248;28;20051;-83
2022/10/09 06:11:35;;;;;;;0.47;0.40;;;;;;;20.63;32.97;99956.94;4939766;28;20109;-83
2022/10/09 06:14:02;;;;;;;1.55;0.52;;;;;;;20.59;32.93;99966.66;4953539;28;20443;-83
2022/10/09 06:16:28;;;;;;;0.93;0.40;;;;;;;20.48;33.27;99956.84;4953908;28;20101;-83
2022/10/09 06:18:54;;;;;;;1.65;0.60;;;;;;;20.45;33.10;99978.00;4970319;28;20034;-83
2022/10/09 06:21:20;;;;;;;0.60;0.50;;;;;;;20.27;33.04;99956.75;4956070;28;20033;-83
2022/10/09 06:23:59;;;;;;;0.63;0.40;;;;;;;20.29;33.28;99973.56;4969757;28;20058;-83
2022/10/09 06:26:28;;;;;;;0.75;0.60;;;;;;;20.23;33.41;99983.56;4950055;28;20035;-83
2022/10/09 06:28:53;;;;;;;0.47;0.38;;;;;;;20.19;33.51;100001.44;4955163;28;20559;-84
2022/10/09 06:31:21;;;;;;;1.65;0.70;;;;;;;20.14;33.53;99989.75;4952642;28;20037;-83
2022/10/09 06:33:48;;;;;;;1.33;0.50;;;;;;;20.04;33.56;99987.78;4937298;28;20141;-83
2022/10/09 06:36:15;;;;;;;0.52;0.32;;;;;;;20.03;33.74;100003.22;4920806;28;20063;-83
2022/10/09 06:38:41;;;;;;;0.50;0.40;;;;;;;19.97;33.95;100001.56;4936957;28;20023;-83
2022/10/09 06:41:14;;;;;;;2.00;0.40;;;;;;;19.98;33.88;100015.94;4952017;28;20562;-83
2022/10/09 06:43:42;;;;;;;0.60;0.40;;;;;;;19.95;33.89;100011.03;4917888;29;20602;-83
2022/10/09 06:46:09;;;;;;;0.75;0.50;;;;;;;19.87;33.94;100009.63;4947616;29;20032;-83
2022/10/09 06:48:37;;;;;;;0.40;0.40;;;;;;;19.85;33.84;100017.19;4933680;29;20134;-83
2022/10/09 06:51:07;;;;;;;1.27;0.50;;;;;;;19.87;33.90;100015.06;4948583;29;20033;-83
2022/10/09 06:53:34;;;;;;;1.02;0.40;;;;;;;20.11;33.66;100025.53;4948276;28;20154;-83
2022/10/09 06:55:59;;;;;;;0.90;0.50;;;;;;;20.36;33.30;100028.41;4949119;28;20043;-83
2022/10/09 06:58:25;;;;;;;0.57;0.30;;;;;;;20.47;32.96;100023.88;4948548;29;20023;-83
2022/10/09 07:01:04;;;;;;;0.30;0.30;;;;;;;20.77;32.65;100033.31;4949363;29;20042;-83
2022/10/09 07:03:30;;;;;;;0.50;0.40;;;;;;;20.88;32.60;100034.97;4956965;28;20023;-83
2022/10/09 07:06:13;;;;;;;0.38;0.38;;;;;;;20.89;32.55;100038.53;4950610;28;20453;-84
2022/10/09 07:08:40;;;;;;;1.83;0.40;;;;;;;20.85;32.54;100034.69;4949058;29;20031;-83
2022/10/09 07:11:16;;;;;;;0.40;0.32;;;;;;;20.72;32.87;100047.69;4950128;28;20400;-83
2022/10/09 07:13:42;;;;;;;0.40;0.40;;;;;;;20.65;32.84;100055.25;4950446;28;20032;-83
2022/10/09 07:16:08;;;;;;;1.88;0.60;;;;;;;20.56;33.09;100054.88;4949537;28;20111;-83
2022/10/09 07:18:34;;;;;;;1.88;0.40;;;;;;;20.48;33.11;100047.22;4938712;29;20028;-83
2022/10/09 07:21:03;;;;;;;3.35;0.40;;;;;;;20.42;33.31;100061.84;4948625;29;20399;-83
2022/10/09 07:23:30;;;;;;;1.60;0.32;;;;;;;20.36;33.33;100062.91;4930934;29;20612;-83
2022/10/09 07:25:55;;;;;;;0.30;0.30;;;;;;;20.27;33.38;100060.66;4949070;29;20023;-83
2022/10/09 07:28:22;;;;;;;1.00;0.50;;;;;;;20.21;33.37;100066.28;4947923;29;20023;-83
2022/10/09 07:30:47;;;;;;;0.60;0.30;;;;;;;20.10;33.59;100062.69;4949265;29;20098;-83
2022/10/09 07:33:13;;;;;;;0.65;0.40;;;;;;;20.13;33.42;100073.03;4948620;29;20192;-83
2022/10/09 07:35:38;;;;;;;0.55;0.40;;;;;;;20.00;33.63;100066.13;4949060;29;20118;-83
2022/10/09 07:38:04;;;;;;;0.40;0.30;;;;;;;20.04;33.75;100083.53;4952504;28;20506;-83
2022/10/09 07:40:33;;;;;;;0.98;0.50;;;;;;;19.93;33.74;100073.66;4950749;29;20135;-83
2022/10/09 07:42:58;;;;;;;0.40;0.30;;;;;;;19.94;33.77;100079.91;4953804;28;20126;-84
2022/10/09 07:45:24;;;;;;;0.90;0.35;;;;;;;19.94;33.82;100093.47;4972696;28;20041;-83
2022/10/09 07:47:50;;;;;;;0.40;0.30;;;;;;;19.91;33.82;100097.53;4973496;28;20391;-83
2022/10/09 07:50:16;;;;;;;0.60;0.43;;;;;;;19.87;33.97;100096.41;4972470;28;20394;-83
2022/10/09 07:52:41;;;;;;;0.45;0.35;;;;;;;19.80;33.94;100090.34;4973001;28;20034;-83
2022/10/09 07:55:07;;;;;;;0.77;0.40;;;;;;;19.84;34.14;100102.34;4972862;28;20110;-83
2022/10/09 07:57:33;;;;;;;0.40;0.40;;;;;;;19.74;34.26;100094.91;4970471;28;20383;-83
2022/10/09 07:59:58;;;;;;;0.90;0.40;;;;;;;19.75;34.03;100101.97;4972828;28;20034;-83
2022/10/09 08:02:24;;;;;;;0.30;0.30;;;;;;;19.76;34.17;100106.31;4955123;28;20245;-83
2022/10/09 08:04:50;;;;;;;0.73;0.40;;;;;;;19.53;34.15;100074.88;4957747;28;20034;-83
2022/10/09 08:07:15;;;;;;;0.43;0.30;;;;;;;19.57;34.08;100077.88;4955910;28;20113;-83
2022/10/09 08:09:41;;;;;;;2.92;0.30;;;;;;;19.72;34.38;100105.16;4940787;28;20400;-83
2022/10/09 08:12:06;;;;;;;0.40;0.30;;;;;;;19.58;34.40;100099.31;4937898;28;20065;-83
2022/10/09 08:14:32;;;;;;;0.30;0.30;;;;;;;19.37;34.38;100073.91;4972291;28;20490;-83
2022/10/09 08:16:58;;;;;;;0.40;0.32;;;;;;;19.63;34.56;100112.94;4958504;28;20509;-83
2022/10/09 08:19:23;;;;;;;0.55;0.30;;;;;;;19.67;34.50;100122.19;4939361;28;20109;-83
2022/10/09 08:21:49;;;;;;;0.40;0.40;;;;;;;19.65;34.50;100121.63;4958435;28;20424;-83
2022/10/09 08:24:15;;;;;;;0.88;0.38;;;;;;;19.52;34.51;100116.59;4972633;28;20400;-83
2022/10/09 08:26:41;;;;;;;0.98;0.40;;;;;;;19.65;34.48;100126.22;4955535;28;20396;-83
2022/10/09 08:29:07;;;;;;;0.65;0.43;;;;;;;19.63;34.58;100121.06;4955178;28;20030;-83
2022/10/09 08:31:33;;;;;;;0.52;0.40;;;;;;;19.59;34.50;100121.81;4972202;28;20034;-83
2022/10/09 08:34:01;;;;;;;0.40;0.40;;;;;;;19.62;34.49;100132.97;4955373;28;20066;-84
2022/10/09 08:36:27;;;;;;;0.43;0.30;;;;;;;19.43;34.64;100104.56;4939363;28;20081;-84
2022/10/09 08:38:52;;;;;;;0.70;0.50;;;;;;;19.25;34.57;100087.56;4938819;28;20632;-84
2022/10/09 08:41:44;;;;;;;0.40;0.40;;;;;;;19.59;34.68;100144.34;4956426;28;20038;-83
2022/10/09 08:44:31;;;;;;;0.50;0.30;;;;;;;19.58;34.85;100153.53;4963533;28;20045;-84
2022/10/09 08:47:02;;;;;;;0.50;0.40;;;;;;;19.58;34.87;100153.53;4971572;28;20508;-83
2022/10/09 08:49:37;;;;;;;0.80;0.38;;;;;;;19.57;34.67;100157.31;4971941;28;20030;-84
2022/10/09 08:52:21;;;;;;;0.30;0.30;;;;;;;19.57;34.94;100161.91;4971647;28;20123;-84
2022/10/09 08:54:47;;;;;;;0.40;0.40;;;;;;;19.54;34.97;100165.97;4970142;28;20105;-84
2022/10/09 08:57:13;;;;;;;0.30;0.30;;;;;;;19.48;35.02;100159.63;4955293;28;20117;-84
2022/10/09 08:59:39;;;;;;;0.75;0.22;;;;;;;19.51;34.97;100161.84;4940414;28;20026;-84
2022/10/09 09:02:22;;;;;;;0.80;0.40;;;;;;;19.54;35.03;100174.09;4971744;28;20030;-84
2022/10/09 09:04:57;;;;;;;0.80;0.40;;;;;;;19.54;35.02;100171.38;4955359;28;20541;-84
2022/10/09 09:07:45;;;;;;;0.40;0.30;;;;;;;19.53;35.15;100177.88;4954582;28;20046;-83
2022/10/09 09:10:21;;;;;;;0.20;0.20;;;;;;;19.52;35.15;100170.78;4956077;28;20125;-84
2022/10/09 09:12:47;;;;;;;0.95;0.40;;;;;;;19.52;35.08;100181.63;4953466;28;20089;-84
2022/10/09 09:15:37;;;;;;;0.90;0.30;;;;;;;19.52;35.03;100187.06;4971216;28;20026;-83
2022/10/09 09:18:19;;;;;;;0.30;0.30;;;;;;;19.47;35.14;100178.84;4970497;28;20030;-83
2022/10/09 09:20:56;;;;;;;0.55;0.40;;;;;;;19.50;35.28;100194.63;4955305;28;20464;-83
2022/10/09 09:23:36;;;;;;;0.47;0.43;;;;;;;19.51;35.45;100185.44;4937734;28;20040;-84
2022/10/09 09:26:01;;;;;;;0.30;0.30;;;;;;;19.44;35.41;100172.06;4971573;28;20043;-84
2022/10/09 09:28:32;;;;;;;0.63;0.30;;;;;;;19.41;35.64;100169.84;4954545;28;20030;-83
2022/10/09 09:31:05;;;;;;;1.20;0.32;;;;;;;19.50;35.56;100190.00;4938489;28;20031;-83
2022/10/09 09:33:55;;;;;;;0.33;0.33;;;;;;;19.62;37.67;100191.78;4971213;28;20066;-86
2022/10/09 09:37:03;;;;;;;1.23;0.40;;;;;;;19.54;36.50;100189.53;4975140;28;20023;-92
2022/10/09 09:39:33;;;;;;;0.75;0.47;;;;;;;19.35;36.36;100170.03;4953858;28;20030;-91
2022/10/09 09:42:23;;;;;;;0.68;0.30;;;;;;;19.52;36.25;100206.88;4926430;28;20039;-91
2022/10/09 09:44:50;;;;;;;0.88;0.50;;;;;;;19.57;36.40;100208.00;4950396;29;20103;-90
2022/10/09 09:47:39;;;;;;;0.22;0.20;;;;;;;19.43;36.17;100183.97;4934646;29;20514;-90
2022/10/09 09:50:05;;;;;;;0.50;0.40;;;;;;;19.39;36.40;100173.91;4950212;29;20038;-91
2022/10/09 09:52:38;;;;;;;0.50;0.40;;;;;;;19.58;36.24;100210.47;4949867;29;20109;-91
2022/10/09 09:55:04;;;;;;;1.05;0.40;;;;;;;19.42;36.59;100197.75;4950401;29;20077;-91
2022/10/09 09:57:41;;;;;;;0.52;0.30;;;;;;;19.60;36.31;100213.72;4934127;29;20043;-91
2022/10/09 10:00:09;;;;;;;0.98;0.50;;;;;;;19.41;36.36;100199.66;4933744;29;20059;-92
2022/10/09 10:02:35;;;;;;;0.22;0.20;;;;;;;19.49;36.36;100199.22;4934440;28;20124;-91
2022/10/09 10:05:05;;;;;;;0.40;0.30;;;;;;;19.56;36.75;100215.31;4950420;28;20035;-92
2022/10/09 10:07:35;;;;;;;0.70;0.35;;;;;;;19.48;36.49;100196.78;4934488;29;20376;-91
2022/10/09 10:10:20;;;;;;;0.30;0.30;;;;;;;19.48;36.59;100207.63;4937498;29;20037;-91
2022/10/09 10:12:51;;;;;;;1.08;0.50;;;;;;;19.65;37.72;100229.25;4935485;29;20027;-91
2022/10/09 10:15:27;;;;;;;2.08;0.50;;;;;;;19.52;36.99;100208.75;4951040;28;20106;-94
2022/10/09 10:17:58;;;;;;;0.75;0.40;;;;;;;19.69;36.87;100214.91;4934336;29;20027;-94
2022/10/09 10:20:24;;;;;;;2.00;0.40;;;;;;;19.70;36.81;100221.19;4933941;29;20251;-94
2022/10/09 10:22:52;;;;;;;1.95;0.43;;;;;;;19.79;36.48;100229.72;4949970;29;20061;-94
2022/10/09 10:25:19;;;;;;;2.72;0.32;;;;;;;19.70;36.26;100213.84;4950179;29;20027;-94
2022/10/09 10:27:44;;;;;;;2.70;0.50;;;;;;;19.83;35.90;100182.03;4939789;29;20049;-94
2022/10/09 10:30:12;;;;;;;2.78;0.57;;;;;;;20.17;35.72;100236.94;4917912;29;20058;-94
2022/10/09 10:33:17;;;;;;;4.57;0.40;;;;;;;20.35;35.26;100232.22;4933747;29;20027;-95
2022/10/09 10:35:43;;;;;;;2.97;0.43;;;;;;;20.62;35.01;100249.34;4949531;29;20046;-94
2022/10/09 10:38:17;;;;;;;1.17;0.40;;;;;;;20.71;34.73;100240.72;4933446;29;20039;-93
2022/10/09 10:41:21;;;;;;;1.92;0.40;;;;;;;20.39;34.75;100200.78;4933313;29;20107;-96
2022/10/09 10:43:55;;;;;;;1.63;0.38;;;;;;;20.40;35.17;100224.97;4916003;29;20035;-96
2022/10/09 10:46:24;;;;;;;2.30;0.55;;;;;;;20.40;35.26;100224.97;4918344;29;20086;-96
2022/10/09 10:48:51;;;;;;;1.38;0.30;;;;;;;20.20;35.70;100212.00;4930608;29;20516;-96
2022/10/09 10:51:47;;;;;;;0.65;0.30;;;;;;;20.55;35.76;100259.56;4926801;29;20031;-96
2022/10/09 10:54:30;;;;;;;2.25;0.38;;;;;;;20.16;35.88;100220.91;4934780;29;20079;-96
2022/10/09 10:57:15;;;;;;;0.33;0.30;;;;;;;20.52;36.06;100275.53;4931994;29;20035;-95
2022/10/09 10:59:49;;;;;;;;;;;;;;;20.50;35.97;100281.22;4950266;29;20035;-87
2022/10/09 11:02:25;;;;;;;0.50;0.40;;;;;;;20.45;36.16;100273.03;4949395;29;20008;-89
2022/10/09 11:05:14;;;;;;;1.27;0.30;;;;;;;20.37;36.19;100274.31;4949825;29;20050;-89
2022/10/09 11:07:48;;;;;;;0.80;0.30;;;;;;;20.19;36.20;100251.06;4964771;28;20023;-88
2022/10/09 11:10:37;;;;;;;3.47;0.43;;;;;;;20.33;36.38;100277.78;4951423;28;20027;-89
2022/10/09 11:13:33;;;;;;;2.13;0.50;;;;;;;20.31;36.35;100272.63;4953389;28;20038;-89
2022/10/09 11:16:05;;;;;;;1.13;0.40;;;;;;;20.29;36.46;100274.78;4929452;29;20046;-89
2022/10/09 11:18:42;;;;;;;2.35;0.25;;;;;;;20.27;36.47;100279.66;4954746;28;20400;-90
2022/10/09 11:21:26;;;;;;;1.25;0.50;;;;;;;20.27;36.57;100280.44;4953448;28;20086;-90
2022/10/09 11:24:10;;;;;;;0.98;0.45;;;;;;;20.27;36.50;100276.94;4953737;29;20503;-90
2022/10/09 11:27:05;;;;;;;1.65;0.30;;;;;;;20.25;36.87;100290.75;4954294;28;20490;-89
2022/10/09 11:29:34;;;;;;;;;;;;;;;20.28;36.81;100297.53;4952397;29;20077;-87
2022/10/09 11:32:33;;;;;;;0.70;0.38;;;;;;;20.25;36.76;100287.22;4952609;29;20555;-89
2022/10/09 11:35:05;;;;;;;1.38;0.47;;;;;;;20.21;36.77;100296.94;4953608;29;20058;-90
2022/10/09 11:37:47;;;;;;;1.73;0.35;;;;;;;20.24;36.75;100291.00;4952835;29;20054;-90
2022/10/09 11:40:19;;;;;;;0.55;0.40;;;;;;;20.22;36.85;100298.56;4952437;29;20392;-93
2022/10/09 11:42:46;;;;;;;1.80;0.50;;;;;;;20.21;36.76;100302.34;4953930;28;20520;-91
2022/10/09 11:45:26;;;;;;;0.38;0.38;;;;;;;20.04;36.64;100283.44;4965750;28;20050;-91
2022/10/09 11:48:03;;;;;;;0.20;0.20;;;;;;;20.03;36.72;100277.19;4952554;28;20035;-91
2022/10/09 11:50:52;;;;;;;1.08;0.20;;;;;;;20.20;36.79;100300.72;4972967;28;20089;-92